sensor_id;sensor_type;location;lat;lon;timestamp;pressure;altitude;pressure_sealevel;temperature;humidity
11124;BME280;5616;42.692;23.312;2023-01-29T00:01:45;95251.63;;;1.99;88.23
11124;BME280;5616;42.692;23.312;2023-01-29T00:04:13;95255.06;;;1.89;88.25
11124;BME280;5616;42.692;23.312;2023-01-29T00:06:41;95255.44;;;2.05;88.08
11124;BME280;5616;42.692;23.312;2023-01-29T00:09:08;95270.81;;;2.03;86.97
11124;BME280;5616;42.692;23.312;2023-01-29T00:11:35;95259.72;;;2.04;87.58
11124;BME280;5616;42.692;23.312;2023-01-29T00:14:02;95271.00;;;2.11;86.35
11124;BME280;5616;42.692;23.312;2023-01-29T00:16:29;95270.03;;;2.03;86.78
11124;BME280;5616;42.692;23.312;2023-01-29T00:18:55;95261.59;;;2.02;86.77
11124;BME280;5616;42.692;23.312;2023-01-29T00:21:23;95269.13;;;1.93;86.48
11124;BME280;5616;42.692;23.312;2023-01-29T00:23:53;95271.50;;;1.84;87.84
11124;BME280;5616;42.692;23.312;2023-01-29T00:26:20;95270.19;;;1.90;87.49
11124;BME280;5616;42.692;23.312;2023-01-29T00:28:47;95275.63;;;1.97;87.53
11124;BME280;5616;42.692;23.312;2023-01-29T00:31:16;95272.59;;;2.03;89.09
11124;BME280;5616;42.692;23.312;2023-01-29T00:33:43;95277.09;;;1.99;88.77
11124;BME280;5616;42.692;23.312;2023-01-29T00:36:12;95271.63;;;2.04;88.01
11124;BME280;5616;42.692;23.312;2023-01-29T00:38:39;95275.91;;;2.03;87.87
11124;BME280;5616;42.692;23.312;2023-01-29T00:41:08;95273.56;;;1.91;88.54
11124;BME280;5616;42.692;23.312;2023-01-29T00:43:53;95273.56;;;1.91;88.59
11124;BME280;5616;42.692;23.312;2023-01-29T00:46:37;95268.69;;;1.88;89.20
11124;BME280;5616;42.692;23.312;2023-01-29T00:49:04;95273.44;;;1.92;89.68
11124;BME280;5616;42.692;23.312;2023-01-29T00:51:31;95272.69;;;2.01;88.29
11124;BME280;5616;42.692;23.312;2023-01-29T00:53:58;95278.22;;;2.06;88.86
11124;BME280;5616;42.692;23.312;2023-01-29T00:56:29;95275.38;;;2.00;89.09
11124;BME280;5616;42.692;23.312;2023-01-29T00:58:56;95280.47;;;2.00;88.52
11124;BME280;5616;42.692;23.312;2023-01-29T01:01:23;95273.13;;;2.06;89.15
11124;BME280;5616;42.692;23.312;2023-01-29T01:04:04;95276.28;;;1.99;89.84
11124;BME280;5616;42.692;23.312;2023-01-29T01:06:31;95278.22;;;2.06;89.65
11124;BME280;5616;42.692;23.312;2023-01-29T01:08:58;95276.72;;;2.04;89.88
11124;BME280;5616;42.692;23.312;2023-01-29T01:11:43;95272.00;;;1.99;88.87
11124;BME280;5616;42.692;23.312;2023-01-29T01:14:10;95273.38;;;2.03;88.26
11124;BME280;5616;42.692;23.312;2023-01-29T01:16:37;95270.13;;;2.01;88.36
11124;BME280;5616;42.692;23.312;2023-01-29T01:19:04;95277.59;;;1.93;88.37
11124;BME280;5616;42.692;23.312;2023-01-29T01:21:31;95273.13;;;1.85;88.35
11124;BME280;5616;42.692;23.312;2023-01-29T01:23:58;95279.47;;;1.91;88.15
11124;BME280;5616;42.692;23.312;2023-01-29T01:26:26;95273.72;;;1.78;87.73
11124;BME280;5616;42.692;23.312;2023-01-29T01:28:55;95267.00;;;1.77;88.52
11124;BME280;5616;42.692;23.312;2023-01-29T01:31:22;95278.16;;;1.76;88.21
11124;BME280;5616;42.692;23.312;2023-01-29T01:33:49;95265.91;;;1.70;88.24
11124;BME280;5616;42.692;23.312;2023-01-29T01:36:18;95267.19;;;1.64;88.03
11124;BME280;5616;42.692;23.312;2023-01-29T01:38:45;95263.59;;;1.67;88.56
11124;BME280;5616;42.692;23.312;2023-01-29T01:41:14;95271.91;;;1.69;88.38
11124;BME280;5616;42.692;23.312;2023-01-29T01:43:47;95269.50;;;1.67;89.45
11124;BME280;5616;42.692;23.312;2023-01-29T01:46:17;95276.47;;;1.65;89.39
11124;BME280;5616;42.692;23.312;2023-01-29T01:48:45;95271.91;;;1.69;89.37
11124;BME280;5616;42.692;23.312;2023-01-29T01:51:14;95274.59;;;1.67;89.56
11124;BME280;5616;42.692;23.312;2023-01-29T01:53:44;95277.72;;;1.71;90.63
11124;BME280;5616;42.692;23.312;2023-01-29T01:56:15;95276.84;;;1.81;90.07
11124;BME280;5616;42.692;23.312;2023-01-29T01:58:47;95279.84;;;1.87;89.14
11124;BME280;5616;42.692;23.312;2023-01-29T02:01:17;95282.25;;;1.88;89.36
11124;BME280;5616;42.692;23.312;2023-01-29T02:03:54;95284.72;;;1.78;89.08
11124;BME280;5616;42.692;23.312;2023-01-29T02:06:40;95283.59;;;1.71;88.79
11124;BME280;5616;42.692;23.312;2023-01-29T02:09:26;95288.00;;;1.69;89.49
11124;BME280;5616;42.692;23.312;2023-01-29T02:11:58;95276.91;;;1.70;90.10
11124;BME280;5616;42.692;23.312;2023-01-29T02:14:25;95283.16;;;1.66;90.22
11124;BME280;5616;42.692;23.312;2023-01-29T02:16:53;95285.00;;;1.64;90.15
11124;BME280;5616;42.692;23.312;2023-01-29T02:19:28;95284.09;;;1.65;90.03
11124;BME280;5616;42.692;23.312;2023-01-29T02:25:45;95280.28;;;1.60;90.35
11124;BME280;5616;42.692;23.312;2023-01-29T02:28:28;95285.03;;;1.53;90.89
11124;BME280;5616;42.692;23.312;2023-01-29T02:31:03;95291.28;;;1.60;91.57
11124;BME280;5616;42.692;23.312;2023-01-29T02:33:40;95292.19;;;1.59;91.63
11124;BME280;5616;42.692;23.312;2023-01-29T02:36:19;95296.25;;;1.62;91.72
11124;BME280;5616;42.692;23.312;2023-01-29T02:38:58;95299.47;;;1.64;91.34
11124;BME280;5616;42.692;23.312;2023-01-29T02:41:28;95295.31;;;1.63;91.49
11124;BME280;5616;42.692;23.312;2023-01-29T02:44:04;95306.50;;;1.71;90.88
11124;BME280;5616;42.692;23.312;2023-01-29T02:46:34;95308.97;;;1.62;90.63
11124;BME280;5616;42.692;23.312;2023-01-29T02:49:09;95306.56;;;1.60;90.63
11124;BME280;5616;42.692;23.312;2023-01-29T02:54:16;95309.41;;;1.67;91.70
11124;BME280;5616;42.692;23.312;2023-01-29T02:56:50;95307.69;;;1.67;91.65
11124;BME280;5616;42.692;23.312;2023-01-29T02:59:22;95302.25;;;1.61;91.45
11124;BME280;5616;42.692;23.312;2023-01-29T03:01:53;95306.41;;;1.62;91.55
11124;BME280;5616;42.692;23.312;2023-01-29T03:04:26;95299.25;;;1.56;92.17
11124;BME280;5616;42.692;23.312;2023-01-29T03:06:58;95305.13;;;1.67;92.79
11124;BME280;5616;42.692;23.312;2023-01-29T03:09:33;95304.41;;;1.76;91.98
11124;BME280;5616;42.692;23.312;2023-01-29T03:12:04;95311.09;;;1.77;92.04
11124;BME280;5616;42.692;23.312;2023-01-29T03:14:46;95311.94;;;1.67;92.10
11124;BME280;5616;42.692;23.312;2023-01-29T03:17:51;95305.50;;;1.63;92.90
11124;BME280;5616;42.692;23.312;2023-01-29T03:20:23;95305.50;;;1.63;93.06
11124;BME280;5616;42.692;23.312;2023-01-29T03:22:57;95311.38;;;1.63;92.51
11124;BME280;5616;42.692;23.312;2023-01-29T03:25:28;95320.56;;;1.55;93.11
11124;BME280;5616;42.692;23.312;2023-01-29T03:28:16;95316.38;;;1.54;92.72
11124;BME280;5616;42.692;23.312;2023-01-29T03:31:04;95311.81;;;1.37;93.15
11124;BME280;5616;42.692;23.312;2023-01-29T03:33:59;95316.75;;;1.49;94.07
11124;BME280;5616;42.692;23.312;2023-01-29T03:36:31;95320.22;;;1.48;92.17
11124;BME280;5616;42.692;23.312;2023-01-29T03:39:03;95318.44;;;1.28;93.21
11124;BME280;5616;42.692;23.312;2023-01-29T03:41:33;95320.22;;;1.48;92.74
11124;BME280;5616;42.692;23.312;2023-01-29T03:44:11;95316.47;;;1.32;93.25
11124;BME280;5616;42.692;23.312;2023-01-29T03:46:47;95311.41;;;1.20;93.16
11124;BME280;5616;42.692;23.312;2023-01-29T03:49:21;95313.44;;;1.27;94.18
11124;BME280;5616;42.692;23.312;2023-01-29T03:51:54;95313.88;;;1.43;93.23
11124;BME280;5616;42.692;23.312;2023-01-29T03:54:25;95310.38;;;1.55;92.81
11124;BME280;5616;42.692;23.312;2023-01-29T03:56:58;95317.41;;;1.62;93.18
11124;BME280;5616;42.692;23.312;2023-01-29T03:59:36;95317.84;;;1.67;92.29
11124;BME280;5616;42.692;23.312;2023-01-29T04:02:21;95313.53;;;1.79;91.82
11124;BME280;5616;42.692;23.312;2023-01-29T04:04:57;95317.44;;;1.83;91.39
11124;BME280;5616;42.692;23.312;2023-01-29T04:07:25;95317.69;;;1.80;90.67
11124;BME280;5616;42.692;23.312;2023-01-29T04:10:03;95324.16;;;1.84;91.74
11124;BME280;5616;42.692;23.312;2023-01-29T04:12:37;95323.72;;;1.79;90.98
11124;BME280;5616;42.692;23.312;2023-01-29T04:15:08;95319.78;;;1.75;90.56
11124;BME280;5616;42.692;23.312;2023-01-29T04:17:40;95321.09;;;1.69;92.12
11124;BME280;5616;42.692;23.312;2023-01-29T04:20:14;95319.34;;;1.70;91.15
11124;BME280;5616;42.692;23.312;2023-01-29T04:22:44;95312.19;;;1.64;92.39
11124;BME280;5616;42.692;23.312;2023-01-29T04:25:15;95325.50;;;1.67;90.91
11124;BME280;5616;42.692;23.312;2023-01-29T04:27:50;95326.66;;;1.63;91.14
11124;BME280;5616;42.692;23.312;2023-01-29T04:30:24;95322.81;;;1.69;91.86
11124;BME280;5616;42.692;23.312;2023-01-29T04:33:03;95320.78;;;1.63;91.60
11124;BME280;5616;42.692;23.312;2023-01-29T04:35:43;95330.59;;;1.67;90.98
11124;BME280;5616;42.692;23.312;2023-01-29T04:38:18;95332.13;;;1.48;91.72
11124;BME280;5616;42.692;23.312;2023-01-29T04:40:51;95325.22;;;1.50;92.37
11124;BME280;5616;42.692;23.312;2023-01-29T04:43:25;95331.88;;;1.62;92.59
11124;BME280;5616;42.692;23.312;2023-01-29T04:46:05;95330.38;;;1.59;90.73
11124;BME280;5616;42.692;23.312;2023-01-29T04:48:44;95329.47;;;1.60;90.91
11124;BME280;5616;42.692;23.312;2023-01-29T04:51:18;95322.44;;;1.42;91.29
11124;BME280;5616;42.692;23.312;2023-01-29T04:53:54;95325.41;;;1.58;91.68
11124;BME280;5616;42.692;23.312;2023-01-29T04:56:26;95334.09;;;1.55;91.05
11124;BME280;5616;42.692;23.312;2023-01-29T04:58:58;95329.13;;;1.54;92.24
11124;BME280;5616;42.692;23.312;2023-01-29T05:01:27;95332.84;;;1.50;91.36
11124;BME280;5616;42.692;23.312;2023-01-29T05:04:00;95324.03;;;1.54;92.28
11124;BME280;5616;42.692;23.312;2023-01-29T05:06:29;95337.78;;;1.62;91.29
11124;BME280;5616;42.692;23.312;2023-01-29T05:08:58;95332.31;;;1.67;91.59
11124;BME280;5616;42.692;23.312;2023-01-29T05:11:27;95335.81;;;1.66;90.85
11124;BME280;5616;42.692;23.312;2023-01-29T05:13:57;95340.09;;;1.54;90.96
11124;BME280;5616;42.692;23.312;2023-01-29T05:16:26;95346.69;;;1.57;91.83
11124;BME280;5616;42.692;23.312;2023-01-29T05:18:53;95344.97;;;1.46;92.16
11124;BME280;5616;42.692;23.312;2023-01-29T05:21:23;95340.09;;;1.54;92.04
11124;BME280;5616;42.692;23.312;2023-01-29T05:24:06;95348.31;;;1.58;91.13
11124;BME280;5616;42.692;23.312;2023-01-29T05:26:34;95343.44;;;1.66;91.24
11124;BME280;5616;42.692;23.312;2023-01-29T05:29:18;95341.56;;;1.68;90.88
11124;BME280;5616;42.692;23.312;2023-01-29T05:31:45;95348.25;;;1.69;90.02
11124;BME280;5616;42.692;23.312;2023-01-29T05:34:12;95358.00;;;1.64;90.66
11124;BME280;5616;42.692;23.312;2023-01-29T05:36:40;95361.25;;;1.66;89.84
11124;BME280;5616;42.692;23.312;2023-01-29T05:39:07;95360.91;;;1.59;90.22
11124;BME280;5616;42.692;23.312;2023-01-29T05:41:34;95363.78;;;1.66;90.42
11124;BME280;5616;42.692;23.312;2023-01-29T05:44:00;95370.00;;;1.73;90.36
11124;BME280;5616;42.692;23.312;2023-01-29T05:46:27;95373.13;;;1.76;90.39
11124;BME280;5616;42.692;23.312;2023-01-29T05:48:54;95366.34;;;1.66;90.67
11124;BME280;5616;42.692;23.312;2023-01-29T05:51:21;95367.34;;;1.74;91.71
11124;BME280;5616;42.692;23.312;2023-01-29T05:53:49;95370.00;;;1.84;90.40
11124;BME280;5616;42.692;23.312;2023-01-29T05:56:16;95376.84;;;1.72;91.04
11124;BME280;5616;42.692;23.312;2023-01-29T05:58:43;95366.72;;;1.82;91.08
11124;BME280;5616;42.692;23.312;2023-01-29T06:01:11;95376.91;;;1.82;91.28
11124;BME280;5616;42.692;23.312;2023-01-29T06:03:38;95377.03;;;1.80;90.73
11124;BME280;5616;42.692;23.312;2023-01-29T06:06:05;95383.63;;;1.83;91.17
11124;BME280;5616;42.692;23.312;2023-01-29T06:08:32;95385.94;;;1.86;90.41
11124;BME280;5616;42.692;23.312;2023-01-29T06:11:00;95387.53;;;1.87;90.25
11124;BME280;5616;42.692;23.312;2023-01-29T06:13:27;95374.13;;;1.85;91.18
11124;BME280;5616;42.692;23.312;2023-01-29T06:15:54;95392.75;;;1.85;90.58
11124;BME280;5616;42.692;23.312;2023-01-29T06:18:21;95393.00;;;1.82;91.35
11124;BME280;5616;42.692;23.312;2023-01-29T06:20:48;95398.44;;;1.89;90.80
11124;BME280;5616;42.692;23.312;2023-01-29T06:23:14;95403.59;;;1.99;91.97
11124;BME280;5616;42.692;23.312;2023-01-29T06:25:41;95396.97;;;2.07;89.93
11124;BME280;5616;42.692;23.312;2023-01-29T06:28:10;95400.66;;;2.14;89.83
11124;BME280;5616;42.692;23.312;2023-01-29T06:30:36;95407.16;;;2.07;89.20
11124;BME280;5616;42.692;23.312;2023-01-29T06:33:03;95410.09;;;2.03;90.82
11124;BME280;5616;42.692;23.312;2023-01-29T06:35:30;95412.13;;;2.09;91.00
11124;BME280;5616;42.692;23.312;2023-01-29T06:37:57;95407.72;;;2.11;91.25
11124;BME280;5616;42.692;23.312;2023-01-29T06:40:23;95415.28;;;2.01;91.53
11124;BME280;5616;42.692;23.312;2023-01-29T06:42:50;95419.91;;;2.07;90.67
11124;BME280;5616;42.692;23.312;2023-01-29T06:45:18;95422.06;;;2.12;89.98
11124;BME280;5616;42.692;23.312;2023-01-29T06:47:45;95422.91;;;2.01;89.80
11124;BME280;5616;42.692;23.312;2023-01-29T06:50:12;95419.22;;;2.05;91.35
11124;BME280;5616;42.692;23.312;2023-01-29T06:52:39;95422.25;;;1.99;91.13
11124;BME280;5616;42.692;23.312;2023-01-29T06:55:06;95430.09;;;2.07;91.07
11124;BME280;5616;42.692;23.312;2023-01-29T06:57:33;95429.91;;;1.88;91.99
11124;BME280;5616;42.692;23.312;2023-01-29T07:00:00;95436.25;;;1.94;91.67
11124;BME280;5616;42.692;23.312;2023-01-29T07:02:28;95437.59;;;2.09;92.22
11124;BME280;5616;42.692;23.312;2023-01-29T07:04:55;95434.56;;;2.15;91.64
11124;BME280;5616;42.692;23.312;2023-01-29T07:07:22;95433.53;;;2.17;91.15
11124;BME280;5616;42.692;23.312;2023-01-29T07:09:48;95433.50;;;2.28;91.23
11124;BME280;5616;42.692;23.312;2023-01-29T07:12:15;95442.00;;;2.38;90.64
11124;BME280;5616;42.692;23.312;2023-01-29T07:14:42;95443.97;;;2.35;90.40
11124;BME280;5616;42.692;23.312;2023-01-29T07:17:09;95448.75;;;2.39;90.08
11124;BME280;5616;42.692;23.312;2023-01-29T07:19:37;95451.63;;;2.35;89.12
11124;BME280;5616;42.692;23.312;2023-01-29T07:22:04;95450.56;;;2.37;89.84
11124;BME280;5616;42.692;23.312;2023-01-29T07:24:31;95455.56;;;2.39;89.49
11124;BME280;5616;42.692;23.312;2023-01-29T07:26:58;95455.00;;;2.35;89.39
11124;BME280;5616;42.692;23.312;2023-01-29T07:29:24;95460.28;;;2.43;88.52
11124;BME280;5616;42.692;23.312;2023-01-29T07:31:51;95460.91;;;2.36;89.81
11124;BME280;5616;42.692;23.312;2023-01-29T07:34:18;95458.47;;;2.34;88.59
11124;BME280;5616;42.692;23.312;2023-01-29T07:36:46;95458.56;;;2.44;88.41
11124;BME280;5616;42.692;23.312;2023-01-29T07:39:13;95460.16;;;2.45;89.62
11124;BME280;5616;42.692;23.312;2023-01-29T07:41:40;95464.91;;;2.50;88.73
11124;BME280;5616;42.692;23.312;2023-01-29T07:44:14;95455.06;;;2.45;86.95
11124;BME280;5616;42.692;23.312;2023-01-29T07:46:41;95439.03;;;2.33;87.24
11124;BME280;5616;42.692;23.312;2023-01-29T07:49:08;95463.19;;;2.50;88.48
11124;BME280;5616;42.692;23.312;2023-01-29T07:51:34;95460.94;;;2.57;87.66
11124;BME280;5616;42.692;23.312;2023-01-29T07:54:03;95465.81;;;2.48;88.19
11124;BME280;5616;42.692;23.312;2023-01-29T07:56:29;95461.41;;;2.51;87.85
11124;BME280;5616;42.692;23.312;2023-01-29T07:58:56;95463.66;;;2.44;89.31
11124;BME280;5616;42.692;23.312;2023-01-29T08:01:23;95468.28;;;2.50;89.15
11124;BME280;5616;42.692;23.312;2023-01-29T08:03:50;95481.25;;;2.47;88.98
11124;BME280;5616;42.692;23.312;2023-01-29T08:06:17;95478.13;;;2.43;89.07
11124;BME280;5616;42.692;23.312;2023-01-29T08:08:44;95482.31;;;2.44;89.31
11124;BME280;5616;42.692;23.312;2023-01-29T08:11:12;95483.09;;;2.45;88.98
11124;BME280;5616;42.692;23.312;2023-01-29T08:13:39;95480.81;;;2.42;88.36
11124;BME280;5616;42.692;23.312;2023-01-29T08:16:07;95475.50;;;2.34;88.10
11124;BME280;5616;42.692;23.312;2023-01-29T08:18:37;95481.38;;;2.34;87.88
11124;BME280;5616;42.692;23.312;2023-01-29T08:21:06;95487.75;;;2.40;88.38
11124;BME280;5616;42.692;23.312;2023-01-29T08:23:33;95473.59;;;2.47;87.75
11124;BME280;5616;42.692;23.312;2023-01-29T08:26:01;95481.94;;;2.49;87.41
11124;BME280;5616;42.692;23.312;2023-01-29T08:28:29;95477.66;;;2.50;87.46
11124;BME280;5616;42.692;23.312;2023-01-29T08:30:56;95490.41;;;2.50;87.74
11124;BME280;5616;42.692;23.312;2023-01-29T08:33:23;95498.25;;;2.58;86.78
11124;BME280;5616;42.692;23.312;2023-01-29T08:35:53;95495.78;;;2.56;86.65
11124;BME280;5616;42.692;23.312;2023-01-29T08:38:20;95487.81;;;2.61;85.77
11124;BME280;5616;42.692;23.312;2023-01-29T08:40:47;95496.56;;;2.68;86.03
11124;BME280;5616;42.692;23.312;2023-01-29T08:43:14;95493.53;;;2.74;85.27
11124;BME280;5616;42.692;23.312;2023-01-29T08:45:42;95503.34;;;2.58;85.85
11124;BME280;5616;42.692;23.312;2023-01-29T08:48:09;95501.53;;;2.69;84.94
11124;BME280;5616;42.692;23.312;2023-01-29T08:50:37;95499.34;;;2.65;85.86
11124;BME280;5616;42.692;23.312;2023-01-29T08:53:05;95504.94;;;2.59;85.72
11124;BME280;5616;42.692;23.312;2023-01-29T08:55:34;95518.69;;;2.67;85.79
11124;BME280;5616;42.692;23.312;2023-01-29T08:58:02;95518.31;;;2.72;85.15
11124;BME280;5616;42.692;23.312;2023-01-29T09:00:29;95514.91;;;2.82;85.17
11124;BME280;5616;42.692;23.312;2023-01-29T09:02:57;95516.69;;;2.82;84.59
11124;BME280;5616;42.692;23.312;2023-01-29T09:05:25;95518.41;;;2.81;83.80
11124;BME280;5616;42.692;23.312;2023-01-29T09:07:52;95517.78;;;2.89;84.13
11124;BME280;5616;42.692;23.312;2023-01-29T09:10:19;95519.28;;;2.91;85.37
11124;BME280;5616;42.692;23.312;2023-01-29T09:12:46;95522.41;;;2.95;84.54
11124;BME280;5616;42.692;23.312;2023-01-29T09:15:12;95514.38;;;2.79;85.58
11124;BME280;5616;42.692;23.312;2023-01-29T09:17:39;95509.66;;;2.95;84.75
11124;BME280;5616;42.692;23.312;2023-01-29T09:20:10;95514.25;;;3.01;84.20
11124;BME280;5616;42.692;23.312;2023-01-29T09:22:37;95522.09;;;2.88;84.29
11124;BME280;5616;42.692;23.312;2023-01-29T09:25:05;95518.72;;;2.88;84.63
11124;BME280;5616;42.692;23.312;2023-01-29T09:27:32;95512.22;;;2.95;84.00
11124;BME280;5616;42.692;23.312;2023-01-29T09:29:59;95513.06;;;2.84;83.49
11124;BME280;5616;42.692;23.312;2023-01-29T09:32:25;95517.78;;;2.89;82.67
11124;BME280;5616;42.692;23.312;2023-01-29T09:34:54;95507.34;;;2.92;83.03
11124;BME280;5616;42.692;23.312;2023-01-29T09:37:23;95506.16;;;2.75;84.14
11124;BME280;5616;42.692;23.312;2023-01-29T09:39:49;95501.63;;;2.79;84.79
11124;BME280;5616;42.692;23.312;2023-01-29T09:42:22;95505.44;;;2.84;84.35
11124;BME280;5616;42.692;23.312;2023-01-29T09:44:58;95500.81;;;2.78;84.98
11124;BME280;5616;42.692;23.312;2023-01-29T09:47:28;95497.19;;;2.81;84.04
11124;BME280;5616;42.692;23.312;2023-01-29T09:50:00;95503.66;;;2.85;85.08
11124;BME280;5616;42.692;23.312;2023-01-29T09:52:34;95493.22;;;2.67;84.26
11124;BME280;5616;42.692;23.312;2023-01-29T09:55:05;95500.00;;;2.78;83.71
11124;BME280;5616;42.692;23.312;2023-01-29T09:57:37;95499.19;;;2.77;84.13
11124;BME280;5616;42.692;23.312;2023-01-29T10:00:13;95495.13;;;2.75;84.41
11124;BME280;5616;42.692;23.312;2023-01-29T10:02:52;95492.59;;;2.75;84.75
11124;BME280;5616;42.692;23.312;2023-01-29T10:05:36;95499.50;;;2.84;85.32
11124;BME280;5616;42.692;23.312;2023-01-29T10:08:37;95493.97;;;2.79;83.14
11124;BME280;5616;42.692;23.312;2023-01-29T10:11:16;95484.41;;;2.71;84.19
11124;BME280;5616;42.692;23.312;2023-01-29T10:13:51;95494.25;;;2.65;85.14
11124;BME280;5616;42.692;23.312;2023-01-29T10:16:37;95486.91;;;2.51;85.21
11124;BME280;5616;42.692;23.312;2023-01-29T10:19:35;95487.41;;;2.44;85.37
11124;BME280;5616;42.692;23.312;2023-01-29T10:22:19;95482.84;;;2.48;84.46
11124;BME280;5616;42.692;23.312;2023-01-29T10:24:53;95478.00;;;2.45;85.25
11124;BME280;5616;42.692;23.312;2023-01-29T10:27:22;95489.81;;;2.46;86.21
11124;BME280;5616;42.692;23.312;2023-01-29T10:29:53;95472.03;;;2.56;85.33
11124;BME280;5616;42.692;23.312;2023-01-29T10:32:24;95482.19;;;2.67;85.11
11124;BME280;5616;42.692;23.312;2023-01-29T10:34:55;95472.31;;;2.53;86.73
11124;BME280;5616;42.692;23.312;2023-01-29T10:37:30;95469.75;;;2.53;84.70
11124;BME280;5616;42.692;23.312;2023-01-29T10:39:59;95465.59;;;2.52;84.31
11124;BME280;5616;42.692;23.312;2023-01-29T10:42:29;95469.38;;;2.25;86.92
11124;BME280;5616;42.692;23.312;2023-01-29T10:45:08;95466.19;;;2.44;86.42
11124;BME280;5616;42.692;23.312;2023-01-29T10:47:51;95478.81;;;2.45;86.45
11124;BME280;5616;42.692;23.312;2023-01-29T10:50:40;95472.66;;;2.48;85.06
11124;BME280;5616;42.692;23.312;2023-01-29T10:53:31;95468.63;;;2.45;85.40
11124;BME280;5616;42.692;23.312;2023-01-29T10:56:11;95470.56;;;2.53;84.97
11124;BME280;5616;42.692;23.312;2023-01-29T10:58:45;95460.06;;;2.46;85.25
11124;BME280;5616;42.692;23.312;2023-01-29T11:01:15;95465.00;;;2.48;84.99
11124;BME280;5616;42.692;23.312;2023-01-29T11:03:42;95457.69;;;2.55;86.55
11124;BME280;5616;42.692;23.312;2023-01-29T11:06:14;95457.47;;;2.58;85.56
11124;BME280;5616;42.692;23.312;2023-01-29T11:08:48;95442.66;;;2.52;85.88
11124;BME280;5616;42.692;23.312;2023-01-29T11:11:18;95452.84;;;2.72;85.12
11124;BME280;5616;42.692;23.312;2023-01-29T11:13:51;95454.03;;;2.68;84.86
11124;BME280;5616;42.692;23.312;2023-01-29T11:16:20;95448.94;;;2.68;84.83
11124;BME280;5616;42.692;23.312;2023-01-29T11:18:53;95448.19;;;2.77;84.70
11124;BME280;5616;42.692;23.312;2023-01-29T11:21:21;95451.59;;;2.87;84.34
11124;BME280;5616;42.692;23.312;2023-01-29T11:23:49;95445.53;;;2.79;84.16
11124;BME280;5616;42.692;23.312;2023-01-29T11:26:19;95439.66;;;2.88;84.89
11124;BME280;5616;42.692;23.312;2023-01-29T11:28:48;95440.19;;;2.82;84.89
11124;BME280;5616;42.692;23.312;2023-01-29T11:31:21;95437.44;;;2.94;85.40
11124;BME280;5616;42.692;23.312;2023-01-29T11:33:52;95434.44;;;3.10;84.59
11124;BME280;5616;42.692;23.312;2023-01-29T11:36:29;95430.69;;;3.14;83.79
11124;BME280;5616;42.692;23.312;2023-01-29T11:39:17;95413.22;;;3.09;83.38
11124;BME280;5616;42.692;23.312;2023-01-29T11:41:53;95422.25;;;2.93;83.32
11124;BME280;5616;42.692;23.312;2023-01-29T11:44:26;95412.19;;;2.91;82.85
11124;BME280;5616;42.692;23.312;2023-01-29T11:46:53;95414.09;;;2.99;82.78
11124;BME280;5616;42.692;23.312;2023-01-29T11:49:26;95409.56;;;3.02;82.84
11124;BME280;5616;42.692;23.312;2023-01-29T11:51:56;95414.56;;;3.14;82.62
11124;BME280;5616;42.692;23.312;2023-01-29T11:54:28;95411.88;;;3.05;83.98
11124;BME280;5616;42.692;23.312;2023-01-29T11:56:58;95406.28;;;3.21;84.00
11124;BME280;5616;42.692;23.312;2023-01-29T11:59:32;95409.59;;;3.42;83.42
11124;BME280;5616;42.692;23.312;2023-01-29T12:02:05;95407.47;;;3.47;81.58
11124;BME280;5616;42.692;23.312;2023-01-29T12:04:39;95405.44;;;3.51;80.80
11124;BME280;5616;42.692;23.312;2023-01-29T12:07:11;95398.09;;;3.57;80.81
11124;BME280;5616;42.692;23.312;2023-01-29T12:09:38;95395.38;;;3.59;79.91
11124;BME280;5616;42.692;23.312;2023-01-29T12:12:26;95391.91;;;3.60;80.81
11124;BME280;5616;42.692;23.312;2023-01-29T12:15:13;95391.66;;;3.63;82.09
11124;BME280;5616;42.692;23.312;2023-01-29T12:17:43;95393.91;;;3.56;81.92
11124;BME280;5616;42.692;23.312;2023-01-29T12:20:14;95394.00;;;3.45;82.62
11124;BME280;5616;42.692;23.312;2023-01-29T12:22:51;95401.28;;;3.50;81.87
11124;BME280;5616;42.692;23.312;2023-01-29T12:25:23;95381.13;;;3.47;81.23
11124;BME280;5616;42.692;23.312;2023-01-29T12:28:00;95400.38;;;3.70;81.68
11124;BME280;5616;42.692;23.312;2023-01-29T12:30:33;95399.31;;;3.72;81.83
11124;BME280;5616;42.692;23.312;2023-01-29T12:33:11;95398.25;;;3.85;81.38
11124;BME280;5616;42.692;23.312;2023-01-29T12:35:42;95395.47;;;3.97;80.40
11124;BME280;5616;42.692;23.312;2023-01-29T12:38:17;95394.91;;;3.84;80.87
11124;BME280;5616;42.692;23.312;2023-01-29T12:40:47;95396.00;;;3.91;79.87
11124;BME280;5616;42.692;23.312;2023-01-29T12:43:18;95400.03;;;3.94;79.93
11124;BME280;5616;42.692;23.312;2023-01-29T12:45:49;95402.59;;;3.94;79.66
11124;BME280;5616;42.692;23.312;2023-01-29T12:48:21;95400.19;;;4.02;80.01
11124;BME280;5616;42.692;23.312;2023-01-29T12:50:51;95398.44;;;4.12;78.94
11124;BME280;5616;42.692;23.312;2023-01-29T12:53:24;95399.38;;;4.20;79.30
11124;BME280;5616;42.692;23.312;2023-01-29T12:55:54;95403.81;;;4.18;78.97
11124;BME280;5616;42.692;23.312;2023-01-29T12:58:28;95401.78;;;4.12;78.46
11124;BME280;5616;42.692;23.312;2023-01-29T13:00:59;95401.38;;;3.98;79.59
11124;BME280;5616;42.692;23.312;2023-01-29T13:03:32;95398.03;;;3.97;79.52
11124;BME280;5616;42.692;23.312;2023-01-29T13:06:05;95398.41;;;3.93;79.14
11124;BME280;5616;42.692;23.312;2023-01-29T13:08:36;95388.19;;;3.93;79.28
11124;BME280;5616;42.692;23.312;2023-01-29T13:11:07;95396.25;;;3.88;79.03
11124;BME280;5616;42.692;23.312;2023-01-29T13:13:43;95398.00;;;3.78;79.80
11124;BME280;5616;42.692;23.312;2023-01-29T13:16:18;95394.47;;;3.69;80.72
11124;BME280;5616;42.692;23.312;2023-01-29T13:18:50;95397.94;;;3.59;80.39
11124;BME280;5616;42.692;23.312;2023-01-29T13:21:21;95404.50;;;3.52;79.78
11124;BME280;5616;42.692;23.312;2023-01-29T13:23:51;95398.03;;;3.48;79.99
11124;BME280;5616;42.692;23.312;2023-01-29T13:26:20;95394.28;;;3.42;81.28
11124;BME280;5616;42.692;23.312;2023-01-29T13:28:50;95400.47;;;3.49;82.33
11124;BME280;5616;42.692;23.312;2023-01-29T13:31:31;95410.84;;;3.27;82.45
11124;BME280;5616;42.692;23.312;2023-01-29T13:34:07;95413.59;;;3.35;82.55
11124;BME280;5616;42.692;23.312;2023-01-29T13:36:41;95415.00;;;3.19;82.77
11124;BME280;5616;42.692;23.312;2023-01-29T13:39:18;95417.34;;;3.31;81.44